sensor_id;sensor_type;location;lat;lon;timestamp;temperature;humidity
54930;DHT22;40833;53.238;6.576;2023-10-08T00:02:04;13.40;99.90
54930;DHT22;40833;53.238;6.576;2023-10-08T00:04:32;13.40;99.90
54930;DHT22;40833;53.238;6.576;2023-10-08T00:07:03;13.40;99.90
54930;DHT22;40833;53.238;6.576;2023-10-08T00:09:33;13.40;99.90
54930;DHT22;40833;53.238;6.576;2023-10-08T00:12:01;13.40;99.90
54930;DHT22;40833;53.238;6.576;2023-10-08T00:14:27;13.40;99.90
54930;DHT22;40833;53.238;6.576;2023-10-08T00:16:53;13.40;99.90
54930;DHT22;40833;53.238;6.576;2023-10-08T00:19:19;13.40;99.90
54930;DHT22;40833;53.238;6.576;2023-10-08T00:21:46;13.40;99.90
54930;DHT22;40833;53.238;6.576;2023-10-08T00:24:14;13.40;99.90
54930;DHT22;40833;53.238;6.576;2023-10-08T00:26:39;13.30;99.90
54930;DHT22;40833;53.238;6.576;2023-10-08T00:29:07;13.30;99.90
54930;DHT22;40833;53.238;6.576;2023-10-08T00:31:40;13.30;99.90
54930;DHT22;40833;53.238;6.576;2023-10-08T00:34:08;13.30;99.90
54930;DHT22;40833;53.238;6.576;2023-10-08T00:36:44;13.30;99.90
54930;DHT22;40833;53.238;6.576;2023-10-08T00:39:11;13.30;99.90
54930;DHT22;40833;53.238;6.576;2023-10-08T00:41:46;13.30;99.90
54930;DHT22;40833;53.238;6.576;2023-10-08T00:44:13;13.30;99.90
54930;DHT22;40833;53.238;6.576;2023-10-08T00:46:42;13.30;99.90
54930;DHT22;40833;53.238;6.576;2023-10-08T00:49:17;13.30;99.90
54930;DHT22;40833;53.238;6.576;2023-10-08T00:51:59;13.30;99.90
54930;DHT22;40833;53.238;6.576;2023-10-08T00:54:38;13.30;99.90
54930;DHT22;40833;53.238;6.576;2023-10-08T00:57:27;13.50;99.90
54930;DHT22;40833;53.238;6.576;2023-10-08T00:59:54;13.40;99.90
54930;DHT22;40833;53.238;6.576;2023-10-08T01:02:21;13.30;99.90
54930;DHT22;40833;53.238;6.576;2023-10-08T01:04:52;13.30;99.90
54930;DHT22;40833;53.238;6.576;2023-10-08T01:07:20;13.30;99.90
54930;DHT22;40833;53.238;6.576;2023-10-08T01:09:46;13.40;99.90
54930;DHT22;40833;53.238;6.576;2023-10-08T01:14:54;13.30;99.90
54930;DHT22;40833;53.238;6.576;2023-10-08T01:17:24;13.30;99.90
54930;DHT22;40833;53.238;6.576;2023-10-08T01:19:51;13.30;99.90
54930;DHT22;40833;53.238;6.576;2023-10-08T01:22:22;13.20;99.90
54930;DHT22;40833;53.238;6.576;2023-10-08T01:24:51;13.20;99.90
54930;DHT22;40833;53.238;6.576;2023-10-08T01:27:18;13.20;99.90
54930;DHT22;40833;53.238;6.576;2023-10-08T01:29:53;13.20;99.90
54930;DHT22;40833;53.238;6.576;2023-10-08T01:32:22;13.20;99.90
54930;DHT22;40833;53.238;6.576;2023-10-08T01:34:49;13.20;99.90
54930;DHT22;40833;53.238;6.576;2023-10-08T01:37:16;13.20;99.90
54930;DHT22;40833;53.238;6.576;2023-10-08T01:39:43;13.20;99.90
54930;DHT22;40833;53.238;6.576;2023-10-08T01:42:13;13.20;99.90
54930;DHT22;40833;53.238;6.576;2023-10-08T01:44:47;13.20;99.90
54930;DHT22;40833;53.238;6.576;2023-10-08T01:47:17;13.20;99.90
54930;DHT22;40833;53.238;6.576;2023-10-08T01:49:43;13.20;99.90
54930;DHT22;40833;53.238;6.576;2023-10-08T01:52:10;13.10;99.90
54930;DHT22;40833;53.238;6.576;2023-10-08T01:54:55;13.20;99.90
54930;DHT22;40833;53.238;6.576;2023-10-08T01:57:21;13.20;99.90
54930;DHT22;40833;53.238;6.576;2023-10-08T01:59:48;13.20;99.90
54930;DHT22;40833;53.238;6.576;2023-10-08T02:02:14;13.20;99.90
54930;DHT22;40833;53.238;6.576;2023-10-08T02:07:07;13.30;99.90
54930;DHT22;40833;53.238;6.576;2023-10-08T02:09:40;13.30;99.90
54930;DHT22;40833;53.238;6.576;2023-10-08T02:12:06;13.30;99.90
54930;DHT22;40833;53.238;6.576;2023-10-08T02:14:32;13.30;99.90
54930;DHT22;40833;53.238;6.576;2023-10-08T02:17:01;13.30;99.90
54930;DHT22;40833;53.238;6.576;2023-10-08T02:19:32;13.30;99.90
54930;DHT22;40833;53.238;6.576;2023-10-08T02:21:58;13.30;99.90
54930;DHT22;40833;53.238;6.576;2023-10-08T02:24:24;13.20;99.90
54930;DHT22;40833;53.238;6.576;2023-10-08T02:26:51;13.20;99.90
54930;DHT22;40833;53.238;6.576;2023-10-08T02:29:17;13.20;99.90
54930;DHT22;40833;53.238;6.576;2023-10-08T02:31:43;13.20;99.90
54930;DHT22;40833;53.238;6.576;2023-10-08T02:34:09;13.20;99.90
54930;DHT22;40833;53.238;6.576;2023-10-08T02:36:39;13.20;99.90
54930;DHT22;40833;53.238;6.576;2023-10-08T02:39:08;13.20;99.90
54930;DHT22;40833;53.238;6.576;2023-10-08T02:41:44;13.10;99.90
54930;DHT22;40833;53.238;6.576;2023-10-08T02:44:12;13.10;99.90
54930;DHT22;40833;53.238;6.576;2023-10-08T02:46:45;13.10;99.90
54930;DHT22;40833;53.238;6.576;2023-10-08T02:49:18;13.10;99.90
54930;DHT22;40833;53.238;6.576;2023-10-08T02:51:52;13.10;99.90
54930;DHT22;40833;53.238;6.576;2023-10-08T02:54:22;13.00;99.90
54930;DHT22;40833;53.238;6.576;2023-10-08T02:56:58;13.00;99.90
54930;DHT22;40833;53.238;6.576;2023-10-08T02:59:31;13.00;99.90
54930;DHT22;40833;53.238;6.576;2023-10-08T03:02:10;13.10;99.90
54930;DHT22;40833;53.238;6.576;2023-10-08T03:04:51;13.00;99.90
54930;DHT22;40833;53.238;6.576;2023-10-08T03:07:18;13.00;99.90
54930;DHT22;40833;53.238;6.576;2023-10-08T03:09:48;13.00;99.90
54930;DHT22;40833;53.238;6.576;2023-10-08T03:12:16;13.00;99.90
54930;DHT22;40833;53.238;6.576;2023-10-08T03:14:43;13.00;99.90
54930;DHT22;40833;53.238;6.576;2023-10-08T03:17:28;13.00;99.90
54930;DHT22;40833;53.238;6.576;2023-10-08T03:19:54;13.00;99.90
54930;DHT22;40833;53.238;6.576;2023-10-08T03:22:27;12.90;99.90
54930;DHT22;40833;53.238;6.576;2023-10-08T03:27:40;12.90;99.90
54930;DHT22;40833;53.238;6.576;2023-10-08T03:30:08;13.00;99.90
54930;DHT22;40833;53.238;6.576;2023-10-08T03:32:40;12.90;99.90
54930;DHT22;40833;53.238;6.576;2023-10-08T03:35:07;13.00;99.90
54930;DHT22;40833;53.238;6.576;2023-10-08T03:37:37;13.00;99.90
54930;DHT22;40833;53.238;6.576;2023-10-08T03:40:15;13.00;99.90
54930;DHT22;40833;53.238;6.576;2023-10-08T03:42:51;13.00;99.90
54930;DHT22;40833;53.238;6.576;2023-10-08T03:45:21;13.00;99.90
54930;DHT22;40833;53.238;6.576;2023-10-08T03:48:06;13.00;99.90
54930;DHT22;40833;53.238;6.576;2023-10-08T03:50:33;13.00;99.90
54930;DHT22;40833;53.238;6.576;2023-10-08T03:53:07;13.00;99.90
54930;DHT22;40833;53.238;6.576;2023-10-08T03:55:40;13.00;99.90
54930;DHT22;40833;53.238;6.576;2023-10-08T03:58:09;13.10;99.90
54930;DHT22;40833;53.238;6.576;2023-10-08T04:00:55;13.00;99.90
54930;DHT22;40833;53.238;6.576;2023-10-08T04:03:43;13.00;99.90
54930;DHT22;40833;53.238;6.576;2023-10-08T04:06:21;13.00;99.90
54930;DHT22;40833;53.238;6.576;2023-10-08T04:08:56;13.00;99.90
54930;DHT22;40833;53.238;6.576;2023-10-08T04:11:38;13.00;99.90
54930;DHT22;40833;53.238;6.576;2023-10-08T04:14:25;13.00;99.90
54930;DHT22;40833;53.238;6.576;2023-10-08T04:16:51;13.00;99.90
54930;DHT22;40833;53.238;6.576;2023-10-08T04:19:22;13.00;99.90
54930;DHT22;40833;53.238;6.576;2023-10-08T04:21:53;13.00;99.90
54930;DHT22;40833;53.238;6.576;2023-10-08T04:24:23;13.00;99.90
54930;DHT22;40833;53.238;6.576;2023-10-08T04:26:57;13.10;99.90
54930;DHT22;40833;53.238;6.576;2023-10-08T04:29:23;13.00;99.90
54930;DHT22;40833;53.238;6.576;2023-10-08T04:31:49;13.00;99.90
54930;DHT22;40833;53.238;6.576;2023-10-08T04:34:30;13.00;99.90
54930;DHT22;40833;53.238;6.576;2023-10-08T04:36:58;12.90;99.90
54930;DHT22;40833;53.238;6.576;2023-10-08T04:39:29;13.00;99.90
54930;DHT22;40833;53.238;6.576;2023-10-08T04:41:59;13.00;99.90
54930;DHT22;40833;53.238;6.576;2023-10-08T04:44:31;12.90;99.90
54930;DHT22;40833;53.238;6.576;2023-10-08T04:46:57;13.00;99.90
54930;DHT22;40833;53.238;6.576;2023-10-08T04:49:30;12.90;99.90
54930;DHT22;40833;53.238;6.576;2023-10-08T04:52:03;12.90;99.90
54930;DHT22;40833;53.238;6.576;2023-10-08T04:54:34;12.90;99.90
54930;DHT22;40833;53.238;6.576;2023-10-08T04:57:06;12.90;99.90
54930;DHT22;40833;53.238;6.576;2023-10-08T04:59:32;12.80;99.90
54930;DHT22;40833;53.238;6.576;2023-10-08T05:02:05;12.90;99.90
54930;DHT22;40833;53.238;6.576;2023-10-08T05:04:59;12.90;99.90
54930;DHT22;40833;53.238;6.576;2023-10-08T05:10:10;12.90;99.90
54930;DHT22;40833;53.238;6.576;2023-10-08T05:12:57;12.80;99.90
54930;DHT22;40833;53.238;6.576;2023-10-08T05:15:28;12.90;99.90
54930;DHT22;40833;53.238;6.576;2023-10-08T05:18:13;12.80;99.90
54930;DHT22;40833;53.238;6.576;2023-10-08T05:23:20;12.80;99.90
54930;DHT22;40833;53.238;6.576;2023-10-08T05:25:53;12.80;99.90
54930;DHT22;40833;53.238;6.576;2023-10-08T05:28:24;12.80;99.90
54930;DHT22;40833;53.238;6.576;2023-10-08T05:30:50;12.80;99.90
54930;DHT22;40833;53.238;6.576;2023-10-08T05:36:20;12.80;99.90
54930;DHT22;40833;53.238;6.576;2023-10-08T05:38:54;12.70;99.90
54930;DHT22;40833;53.238;6.576;2023-10-08T05:41:38;12.70;99.90
54930;DHT22;40833;53.238;6.576;2023-10-08T05:44:06;12.70;99.90
54930;DHT22;40833;53.238;6.576;2023-10-08T05:46:50;12.70;99.90
54930;DHT22;40833;53.238;6.576;2023-10-08T05:49:22;12.70;99.90
54930;DHT22;40833;53.238;6.576;2023-10-08T05:51:57;12.60;99.90
54930;DHT22;40833;53.238;6.576;2023-10-08T05:54:28;12.60;99.90
54930;DHT22;40833;53.238;6.576;2023-10-08T05:57:02;12.60;99.90
54930;DHT22;40833;53.238;6.576;2023-10-08T05:59:40;12.60;99.90
54930;DHT22;40833;53.238;6.576;2023-10-08T06:02:40;12.60;99.90
54930;DHT22;40833;53.238;6.576;2023-10-08T06:05:10;12.60;99.90
54930;DHT22;40833;53.238;6.576;2023-10-08T06:10:17;12.60;99.90
54930;DHT22;40833;53.238;6.576;2023-10-08T06:13:13;12.60;99.90
54930;DHT22;40833;53.238;6.576;2023-10-08T06:15:51;12.60;99.90
54930;DHT22;40833;53.238;6.576;2023-10-08T06:18:32;12.60;99.90
54930;DHT22;40833;53.238;6.576;2023-10-08T06:21:04;12.60;99.90
54930;DHT22;40833;53.238;6.576;2023-10-08T06:23:35;12.60;99.90
54930;DHT22;40833;53.238;6.576;2023-10-08T06:26:02;12.60;99.90
54930;DHT22;40833;53.238;6.576;2023-10-08T06:28:43;12.60;99.90
54930;DHT22;40833;53.238;6.576;2023-10-08T06:33:42;12.70;99.90
54930;DHT22;40833;53.238;6.576;2023-10-08T06:36:08;12.70;99.90
54930;DHT22;40833;53.238;6.576;2023-10-08T06:38:36;12.70;99.90
54930;DHT22;40833;53.238;6.576;2023-10-08T06:41:06;12.80;99.90
54930;DHT22;40833;53.238;6.576;2023-10-08T06:43:36;12.80;99.90
54930;DHT22;40833;53.238;6.576;2023-10-08T06:46:03;12.80;99.90
54930;DHT22;40833;53.238;6.576;2023-10-08T06:48:32;12.80;99.90
54930;DHT22;40833;53.238;6.576;2023-10-08T06:51:00;12.80;99.90
54930;DHT22;40833;53.238;6.576;2023-10-08T06:53:48;12.80;99.90
54930;DHT22;40833;53.238;6.576;2023-10-08T06:56:15;12.90;99.90
54930;DHT22;40833;53.238;6.576;2023-10-08T06:58:42;12.90;99.90
54930;DHT22;40833;53.238;6.576;2023-10-08T07:01:14;13.00;99.90
54930;DHT22;40833;53.238;6.576;2023-10-08T07:06:14;13.00;99.90
54930;DHT22;40833;53.238;6.576;2023-10-08T07:08:51;13.00;99.90
54930;DHT22;40833;53.238;6.576;2023-10-08T07:11:21;13.10;99.90
54930;DHT22;40833;53.238;6.576;2023-10-08T07:13:47;13.20;99.90
54930;DHT22;40833;53.238;6.576;2023-10-08T07:16:13;13.20;99.90
54930;DHT22;40833;53.238;6.576;2023-10-08T07:18:43;13.20;99.90
54930;DHT22;40833;53.238;6.576;2023-10-08T07:21:15;13.30;99.90
54930;DHT22;40833;53.238;6.576;2023-10-08T07:23:41;13.30;99.90
54930;DHT22;40833;53.238;6.576;2023-10-08T07:26:23;13.30;99.90
54930;DHT22;40833;53.238;6.576;2023-10-08T07:28:54;13.10;99.90
54930;DHT22;40833;53.238;6.576;2023-10-08T07:31:23;13.30;99.90
54930;DHT22;40833;53.238;6.576;2023-10-08T07:33:54;13.40;99.90
54930;DHT22;40833;53.238;6.576;2023-10-08T07:36:27;13.40;99.90
54930;DHT22;40833;53.238;6.576;2023-10-08T07:38:54;13.40;99.90
54930;DHT22;40833;53.238;6.576;2023-10-08T07:41:20;13.40;99.90
54930;DHT22;40833;53.238;6.576;2023-10-08T07:43:47;13.40;99.90
54930;DHT22;40833;53.238;6.576;2023-10-08T07:46:23;13.40;99.90
54930;DHT22;40833;53.238;6.576;2023-10-08T07:48:49;13.40;99.90
54930;DHT22;40833;53.238;6.576;2023-10-08T07:51:16;13.50;99.90
54930;DHT22;40833;53.238;6.576;2023-10-08T07:53:43;13.50;99.90
54930;DHT22;40833;53.238;6.576;2023-10-08T07:56:09;13.50;99.90
54930;DHT22;40833;53.238;6.576;2023-10-08T07:58:36;13.50;99.90
54930;DHT22;40833;53.238;6.576;2023-10-08T08:01:07;13.50;99.90
54930;DHT22;40833;53.238;6.576;2023-10-08T08:03:34;13.60;99.90
54930;DHT22;40833;53.238;6.576;2023-10-08T08:06:05;13.60;99.90
54930;DHT22;40833;53.238;6.576;2023-10-08T08:08:35;13.90;99.90
54930;DHT22;40833;53.238;6.576;2023-10-08T08:11:08;13.90;99.90
54930;DHT22;40833;53.238;6.576;2023-10-08T08:13:39;14.00;99.90
54930;DHT22;40833;53.238;6.576;2023-10-08T08:18:48;14.20;99.90
54930;DHT22;40833;53.238;6.576;2023-10-08T08:21:25;15.00;99.90
54930;DHT22;40833;53.238;6.576;2023-10-08T08:23:51;14.30;99.90
54930;DHT22;40833;53.238;6.576;2023-10-08T08:26:24;14.30;99.90
54930;DHT22;40833;53.238;6.576;2023-10-08T08:29:01;14.30;99.90
54930;DHT22;40833;53.238;6.576;2023-10-08T08:31:28;14.40;99.90
54930;DHT22;40833;53.238;6.576;2023-10-08T08:33:58;14.40;99.90
54930;DHT22;40833;53.238;6.576;2023-10-08T08:36:29;14.40;99.90
54930;DHT22;40833;53.238;6.576;2023-10-08T08:38:56;14.50;99.90
54930;DHT22;40833;53.238;6.576;2023-10-08T08:41:22;14.50;99.90
54930;DHT22;40833;53.238;6.576;2023-10-08T08:43:53;14.20;99.90
54930;DHT22;40833;53.238;6.576;2023-10-08T08:46:31;14.50;99.90
54930;DHT22;40833;53.238;6.576;2023-10-08T08:49:04;14.50;99.90
54930;DHT22;40833;53.238;6.576;2023-10-08T08:51:30;14.60;99.90
54930;DHT22;40833;53.238;6.576;2023-10-08T08:53:56;14.70;99.90
54930;DHT22;40833;53.238;6.576;2023-10-08T08:56:26;14.70;99.90
54930;DHT22;40833;53.238;6.576;2023-10-08T08:58:53;14.80;99.90
54930;DHT22;40833;53.238;6.576;2023-10-08T09:01:19;14.80;99.90
54930;DHT22;40833;53.238;6.576;2023-10-08T09:06:14;14.80;99.90
54930;DHT22;40833;53.238;6.576;2023-10-08T09:08:40;14.90;99.90
54930;DHT22;40833;53.238;6.576;2023-10-08T09:11:16;15.00;99.90
54930;DHT22;40833;53.238;6.576;2023-10-08T09:13:42;14.90;99.90
54930;DHT22;40833;53.238;6.576;2023-10-08T09:16:12;14.90;99.90
54930;DHT22;40833;53.238;6.576;2023-10-08T09:18:44;14.80;99.90
54930;DHT22;40833;53.238;6.576;2023-10-08T09:21:15;14.90;99.90
54930;DHT22;40833;53.238;6.576;2023-10-08T09:23:49;14.80;99.90
54930;DHT22;40833;53.238;6.576;2023-10-08T09:26:25;15.20;99.90
54930;DHT22;40833;53.238;6.576;2023-10-08T09:31:23;15.80;99.90
54930;DHT22;40833;53.238;6.576;2023-10-08T09:33:56;15.10;99.90
54930;DHT22;40833;53.238;6.576;2023-10-08T09:36:23;15.20;99.90
54930;DHT22;40833;53.238;6.576;2023-10-08T09:39:00;15.80;99.90
54930;DHT22;40833;53.238;6.576;2023-10-08T09:41:31;15.40;99.90
54930;DHT22;40833;53.238;6.576;2023-10-08T09:43:58;15.40;99.90
54930;DHT22;40833;53.238;6.576;2023-10-08T09:46:31;15.50;99.90
54930;DHT22;40833;53.238;6.576;2023-10-08T09:49:02;15.60;99.90
54930;DHT22;40833;53.238;6.576;2023-10-08T09:51:34;15.80;99.90
54930;DHT22;40833;53.238;6.576;2023-10-08T09:54:10;15.80;99.90
54930;DHT22;40833;53.238;6.576;2023-10-08T09:56:40;15.90;99.90
54930;DHT22;40833;53.238;6.576;2023-10-08T09:59:06;16.00;99.90
54930;DHT22;40833;53.238;6.576;2023-10-08T10:01:41;16.00;99.90
54930;DHT22;40833;53.238;6.576;2023-10-08T10:04:22;16.00;99.90
54930;DHT22;40833;53.238;6.576;2023-10-08T10:06:49;16.10;99.90
54930;DHT22;40833;53.238;6.576;2023-10-08T10:09:25;16.10;99.90
54930;DHT22;40833;53.238;6.576;2023-10-08T10:11:53;16.10;99.90
54930;DHT22;40833;53.238;6.576;2023-10-08T10:14:22;16.20;99.90
54930;DHT22;40833;53.238;6.576;2023-10-08T10:17:25;16.20;99.90
54930;DHT22;40833;53.238;6.576;2023-10-08T10:20:01;16.30;99.90
54930;DHT22;40833;53.238;6.576;2023-10-08T10:22:31;16.30;99.90
54930;DHT22;40833;53.238;6.576;2023-10-08T10:25:02;16.30;99.90
54930;DHT22;40833;53.238;6.576;2023-10-08T10:27:42;16.30;99.90
54930;DHT22;40833;53.238;6.576;2023-10-08T10:30:32;16.30;99.90
54930;DHT22;40833;53.238;6.576;2023-10-08T10:33:00;16.20;99.90
54930;DHT22;40833;53.238;6.576;2023-10-08T10:35:26;16.30;99.90
54930;DHT22;40833;53.238;6.576;2023-10-08T10:37:53;16.30;99.90
54930;DHT22;40833;53.238;6.576;2023-10-08T10:40:24;16.30;99.90
54930;DHT22;40833;53.238;6.576;2023-10-08T10:43:10;16.40;99.90
54930;DHT22;40833;53.238;6.576;2023-10-08T10:45:35;16.50;99.90
54930;DHT22;40833;53.238;6.576;2023-10-08T10:48:13;16.60;99.90
54930;DHT22;40833;53.238;6.576;2023-10-08T10:50:51;16.70;99.90
54930;DHT22;40833;53.238;6.576;2023-10-08T10:53:36;16.70;99.90
54930;DHT22;40833;53.238;6.576;2023-10-08T10:56:12;16.70;99.90
54930;DHT22;40833;53.238;6.576;2023-10-08T10:58:46;16.80;99.90
54930;DHT22;40833;53.238;6.576;2023-10-08T11:01:12;16.80;99.90
54930;DHT22;40833;53.238;6.576;2023-10-08T11:04:00;16.80;99.90
54930;DHT22;40833;53.238;6.576;2023-10-08T11:06:28;16.70;99.90
54930;DHT22;40833;53.238;6.576;2023-10-08T11:08:54;16.50;99.90
54930;DHT22;40833;53.238;6.576;2023-10-08T11:11:28;16.50;99.90
54930;DHT22;40833;53.238;6.576;2023-10-08T11:13:59;16.50;99.90
54930;DHT22;40833;53.238;6.576;2023-10-08T11:16:26;16.50;99.90
54930;DHT22;40833;53.238;6.576;2023-10-08T11:18:53;16.50;99.90
54930;DHT22;40833;53.238;6.576;2023-10-08T11:21:23;16.50;99.90
54930;DHT22;40833;53.238;6.576;2023-10-08T11:23:51;16.50;99.90
54930;DHT22;40833;53.238;6.576;2023-10-08T11:26:37;16.60;99.90
54930;DHT22;40833;53.238;6.576;2023-10-08T11:29:20;16.50;99.90
54930;DHT22;40833;53.238;6.576;2023-10-08T11:31:51;16.60;99.90
54930;DHT22;40833;53.238;6.576;2023-10-08T11:34:17;16.60;99.90
54930;DHT22;40833;53.238;6.576;2023-10-08T11:36:52;16.60;99.90
54930;DHT22;40833;53.238;6.576;2023-10-08T11:39:18;16.70;99.90
54930;DHT22;40833;53.238;6.576;2023-10-08T11:42:01;16.70;99.90
54930;DHT22;40833;53.238;6.576;2023-10-08T11:44:33;16.60;99.90
54930;DHT22;40833;53.238;6.576;2023-10-08T11:47:02;16.70;99.90
54930;DHT22;40833;53.238;6.576;2023-10-08T11:49:47;16.80;99.90
54930;DHT22;40833;53.238;6.576;2023-10-08T11:52:16;16.90;99.90
54930;DHT22;40833;53.238;6.576;2023-10-08T11:54:43;16.90;99.90
54930;DHT22;40833;53.238;6.576;2023-10-08T11:57:10;16.90;99.90
54930;DHT22;40833;53.238;6.576;2023-10-08T11:59:37;17.00;99.90
54930;DHT22;40833;53.238;6.576;2023-10-08T12:02:06;17.00;99.90
54930;DHT22;40833;53.238;6.576;2023-10-08T12:04:32;17.10;99.90
54930;DHT22;40833;53.238;6.576;2023-10-08T12:06:58;17.20;99.90
54930;DHT22;40833;53.238;6.576;2023-10-08T12:09:28;17.10;99.90
54930;DHT22;40833;53.238;6.576;2023-10-08T12:11:54;17.20;99.90
54930;DHT22;40833;53.238;6.576;2023-10-08T12:14:21;17.30;99.90
54930;DHT22;40833;53.238;6.576;2023-10-08T12:16:52;17.30;99.90
54930;DHT22;40833;53.238;6.576;2023-10-08T12:19:17;17.40;99.90
54930;DHT22;40833;53.238;6.576;2023-10-08T12:21:44;17.40;99.90
54930;DHT22;40833;53.238;6.576;2023-10-08T12:24:12;17.30;99.90
54930;DHT22;40833;53.238;6.576;2023-10-08T12:26:38;17.40;99.90
54930;DHT22;40833;53.238;6.576;2023-10-08T12:29:12;17.40;99.90
54930;DHT22;40833;53.238;6.576;2023-10-08T12:31:40;17.60;99.90
54930;DHT22;40833;53.238;6.576;2023-10-08T12:34:06;17.50;99.90
54930;DHT22;40833;53.238;6.576;2023-10-08T12:36:31;17.60;99.90
54930;DHT22;40833;53.238;6.576;2023-10-08T12:39:01;17.50;99.90
54930;DHT22;40833;53.238;6.576;2023-10-08T12:41:34;17.50;99.90
54930;DHT22;40833;53.238;6.576;2023-10-08T12:44:04;17.40;99.90
54930;DHT22;40833;53.238;6.576;2023-10-08T12:46:33;17.60;99.90
54930;DHT22;40833;53.238;6.576;2023-10-08T12:48:59;17.60;99.90
54930;DHT22;40833;53.238;6.576;2023-10-08T12:51:27;17.60;99.90
54930;DHT22;40833;53.238;6.576;2023-10-08T12:53:57;17.70;99.90
54930;DHT22;40833;53.238;6.576;2023-10-08T12:56:32;17.80;99.90
54930;DHT22;40833;53.238;6.576;2023-10-08T12:59:02;17.80;99.90
54930;DHT22;40833;53.238;6.576;2023-10-08T13:01:34;17.90;99.90
54930;DHT22;40833;53.238;6.576;2023-10-08T13:04:01;17.80;99.90
54930;DHT22;40833;53.238;6.576;2023-10-08T13:06:33;17.70;99.90
54930;DHT22;40833;53.238;6.576;2023-10-08T13:09:03;17.70;99.90
54930;DHT22;40833;53.238;6.576;2023-10-08T13:11:34;17.60;99.90
54930;DHT22;40833;53.238;6.576;2023-10-08T13:14:00;17.50;99.90
54930;DHT22;40833;53.238;6.576;2023-10-08T13:16:27;17.60;99.90
54930;DHT22;40833;53.238;6.576;2023-10-08T13:18:57;17.60;99.90
54930;DHT22;40833;53.238;6.576;2023-10-08T13:21:27;17.60;99.90
54930;DHT22;40833;53.238;6.576;2023-10-08T13:23:57;17.60;99.90
54930;DHT22;40833;53.238;6.576;2023-10-08T13:26:28;17.60;99.90
54930;DHT22;40833;53.238;6.576;2023-10-08T13:29:00;17.60;99.90
54930;DHT22;40833;53.238;6.576;2023-10-08T13:31:29;17.60;99.90
54930;DHT22;40833;53.238;6.576;2023-10-08T13:33:55;17.70;99.90
54930;DHT22;40833;53.238;6.576;2023-10-08T13:36:28;17.90;99.90
54930;DHT22;40833;53.238;6.576;2023-10-08T13:38:53;18.20;99.90
54930;DHT22;40833;53.238;6.576;2023-10-08T13:41:20;18.50;99.90
54930;DHT22;40833;53.238;6.576;2023-10-08T13:43:50;18.60;99.90
54930;DHT22;40833;53.238;6.576;2023-10-08T13:46:25;18.60;99.90
54930;DHT22;40833;53.238;6.576;2023-10-08T13:48:51;18.50;99.90
54930;DHT22;40833;53.238;6.576;2023-10-08T13:51:22;18.40;99.90
54930;DHT22;40833;53.238;6.576;2023-10-08T13:53:53;18.20;99.90
54930;DHT22;40833;53.238;6.576;2023-10-08T13:56:19;18.00;99.90
54930;DHT22;40833;53.238;6.576;2023-10-08T13:58:53;17.80;99.90
54930;DHT22;40833;53.238;6.576;2023-10-08T14:01:32;17.70;99.90
54930;DHT22;40833;53.238;6.576;2023-10-08T14:04:01;17.50;99.90
54930;DHT22;40833;53.238;6.576;2023-10-08T14:06:38;17.40;99.90
54930;DHT22;40833;53.238;6.576;2023-10-08T14:09:06;17.30;99.90
54930;DHT22;40833;53.238;6.576;2023-10-08T14:11:34;17.20;99.90
54930;DHT22;40833;53.238;6.576;2023-10-08T14:14:00;17.10;99.90
54930;DHT22;40833;53.238;6.576;2023-10-08T14:16:34;17.00;99.90
54930;DHT22;40833;53.238;6.576;2023-10-08T14:19:00;17.00;99.90
54930;DHT22;40833;53.238;6.576;2023-10-08T14:21:30;17.00;99.90
54930;DHT22;40833;53.238;6.576;2023-10-08T14:23:59;16.90;99.90
54930;DHT22;40833;53.238;6.576;2023-10-08T14:26:31;16.80;99.90
54930;DHT22;40833;53.238;6.576;2023-10-08T14:29:02;16.80;99.90
54930;DHT22;40833;53.238;6.576;2023-10-08T14:31:36;16.70;99.90
54930;DHT22;40833;53.238;6.576;2023-10-08T14:34:07;16.70;99.90
54930;DHT22;40833;53.238;6.576;2023-10-08T14:36:49;16.70;99.90
54930;DHT22;40833;53.238;6.576;2023-10-08T14:39:34;16.80;99.90
54930;DHT22;40833;53.238;6.576;2023-10-08T14:42:19;16.90;99.90
54930;DHT22;40833;53.238;6.576;2023-10-08T14:45:04;16.90;99.90
54930;DHT22;40833;53.238;6.576;2023-10-08T14:47:37;17.00;99.90
54930;DHT22;40833;53.238;6.576;2023-10-08T14:50:03;17.10;99.90
54930;DHT22;40833;53.238;6.576;2023-10-08T14:52:33;17.10;99.90
54930;DHT22;40833;53.238;6.576;2023-10-08T14:54:59;17.00;99.90
54930;DHT22;40833;53.238;6.576;2023-10-08T14:57:25;16.90;99.90
54930;DHT22;40833;53.238;6.576;2023-10-08T14:59:52;16.80;99.90
54930;DHT22;40833;53.238;6.576;2023-10-08T15:02:18;16.80;99.90
54930;DHT22;40833;53.238;6.576;2023-10-08T15:04:43;16.80;99.90
54930;DHT22;40833;53.238;6.576;2023-10-08T15:07:10;16.80;99.90
54930;DHT22;40833;53.238;6.576;2023-10-08T15:09:43;16.60;99.90
54930;DHT22;40833;53.238;6.576;2023-10-08T15:12:10;16.60;99.90
54930;DHT22;40833;53.238;6.576;2023-10-08T15:14:36;16.50;99.90
54930;DHT22;40833;53.238;6.576;2023-10-08T15:17:03;16.40;99.90
54930;DHT22;40833;53.238;6.576;2023-10-08T15:19:30;16.40;99.90
54930;DHT22;40833;53.238;6.576;2023-10-08T15:21:57;16.30;99.90
54930;DHT22;40833;53.238;6.576;2023-10-08T15:24:24;16.30;99.90
54930;DHT22;40833;53.238;6.576;2023-10-08T15:26:53;16.30;99.90
54930;DHT22;40833;53.238;6.576;2023-10-08T15:29:20;16.30;99.90
54930;DHT22;40833;53.238;6.576;2023-10-08T15:31:49;16.30;99.90
54930;DHT22;40833;53.238;6.576;2023-10-08T15:34:17;16.30;99.90
54930;DHT22;40833;53.238;6.576;2023-10-08T15:36:43;16.20;99.90
54930;DHT22;40833;53.238;6.576;2023-10-08T15:39:08;16.20;99.90
54930;DHT22;40833;53.238;6.576;2023-10-08T15:41:49;16.20;99.90
54930;DHT22;40833;53.238;6.576;2023-10-08T15:44:16;16.10;99.90
54930;DHT22;40833;53.238;6.576;2023-10-08T15:46:44;16.00;99.90
54930;DHT22;40833;53.238;6.576;2023-10-08T15:49:10;16.00;99.90
54930;DHT22;40833;53.238;6.576;2023-10-08T15:51:35;16.10;99.90
54930;DHT22;40833;53.238;6.576;2023-10-08T15:54:02;16.00;99.90
54930;DHT22;40833;53.238;6.576;2023-10-08T15:56:29;15.90;99.90
54930;DHT22;40833;53.238;6.576;2023-10-08T15:58:55;15.90;99.90
54930;DHT22;40833;53.238;6.576;2023-10-08T16:01:22;15.90;99.90
54930;DHT22;40833;53.238;6.576;2023-10-08T16:03:48;15.90;99.90
54930;DHT22;40833;53.238;6.576;2023-10-08T16:06:14;15.80;99.90
54930;DHT22;40833;53.238;6.576;2023-10-08T16:08:39;15.80;99.90
54930;DHT22;40833;53.238;6.576;2023-10-08T16:11:05;15.80;99.90
54930;DHT22;40833;53.238;6.576;2023-10-08T16:13:31;15.80;99.90
54930;DHT22;40833;53.238;6.576;2023-10-08T16:18:24;15.70;99.90
54930;DHT22;40833;53.238;6.576;2023-10-08T16:20:51;15.70;99.90
54930;DHT22;40833;53.238;6.576;2023-10-08T16:23:18;15.60;99.90
54930;DHT22;40833;53.238;6.576;2023-10-08T16:25:44;15.60;99.90
54930;DHT22;40833;53.238;6.576;2023-10-08T16:28:14;15.60;99.90